Surrency, GA (31563)

12:57 PM EDT on July 29, 2014 (GMT -0400)
203 N (KGAMERSH2) Elev 197 ft | 31.58 °N, 82.32 °W | Change Station

Current weather conditions updated 1 second ago

Clear
Clear
91.5 °F
Feels Like 92 °F
N
2.3
Wind Variable Wind from NW
Gusts 2.3 mph

Today is forecast to be Cooler than yesterday.

Today
High -- | Low -- °F
--% Chance of Precip.
Yesterday
High -- | Low -- °F
Precip. -- in
6:42 AM 8:27 PM
Waxing Crescent, 7% visible
Pressure 29.93 in
Visibility 10.0 miles
Clouds Clear
Heat Index 92 °F
Dew Point 62 °F
Humidity 37%
Rainfall 0.00 in
Snow Depth Not available.
UV 13 out of 12
Pollen 3.70 out of 12
Air Quality Not available.
Flu Activity Not available.
METAR KJES 291635Z AUTO 29008KT 260V320 10SM CLR 33/18 A2993 RMK AO2

More Conditions Fewer Conditions

Pressure 29.93 in
Visibility 10.0 miles
Clouds Clear
Heat Index 92 °F
Dew Point 62 °F
Humidity 37%
Rainfall 0.00 in
Snow Depth Not available.
UV 13 out of 12
Pollen 3.70 out of 12
Air Quality Not available.
Flu Activity Not available.
METAR KJES 291635Z AUTO 29008KT 260V320 10SM CLR 33/18 A2993 RMK AO2

More Conditions Fewer Conditions

10-Day Weather Forecast

Almanac

Astronomy

Jul. 29, 2014 Rise Set
Actual Time 6:42 AM EDT 8:27 PM EDT
Civil Twilight 6:16 AM EDT 8:53 PM EDT
Nautical Twilight 5:43 AM EDT 9:26 PM EDT
Astronomical Twilight 5:09 AM EDT 9:59 PM EDT
Moon 9:05 AM EDT 9:53 PM EDT
Length of Visible Light 14h 37m
Length of Day
13h 44m
Tomorrow will be 1m 23s shorter.
Waxing Crescent, 7% of the Moon is Illuminated
Today
Waxing Crescent
Aug 3
First Quarter
Aug 10
Full
Aug 17
Last Quarter
Aug 25
New

Today's Extremes

State Highs State Lows

Community

WunderPhotos

Upload Photos

1,738,783 photos uploaded!

Nearby

Snow Depth

Station Depth Elevation
No new snow has been reported.

Earthquake Activity

City Distance Mag. Time & Date
No recent earthquake activity has been reported nearby.
Minimum magnitude displayed is 2.5.

Coastal Water Temperatures

Place Temperature
No Stations Reporting

Nearby Weather Stations

Station Location Temp. Heat Index Dew Point Humidity Wind Precip. Elev Updated Type
203 N, Mershon, GA 91.5 °F 92 °F 62 °F 37% NW  at  2.3 mph 0.00 in / hr 197 ft 12:57 PM EDT Rapid Fire
RAWS BAXLEY GA, Baxley, GA 87 °F 87 °F 62 °F 43% ENE  at  6 mph 0.00 in / hr 194 ft 12:04 PM EDT MADIS
Appling, Baxley, GA 89.2 °F 90 °F 62 °F 41% SE  at  0.7 mph 0.00 in / hr 203 ft 12:56 PM EDT Rapid Fire
Wayne Terrace, Jesup, GA 89.8 °F 92 °F 66 °F 45% NW  at  3.0 mph 0.00 in / hr 131 ft 12:55 PM EDT Normal

Show More Stations Show Fewer Stations